Time;durP1;ratioP1;P1;durP2;ratioP2;P2;SDS_P1;SDS_P2;PMS_P1;PMS_P2;Temp;Humidity;BMP_temperature;BMP_pressure;BME280_temperature;BME280_humidity;BME280_pressure;Samples;Min_cycle;Max_cycle;Signal;HPM_P1;HPM_P2
2022/02/11 00:00:00;;;;;;;25.67;15.87;;;;;;;6.84;74.89;98933.03;2291374;77;21372;-84
2022/02/11 00:06:15;;;;;;;28.43;16.80;;;;;;;6.82;75.07;98943.36;2292690;78;20988;-83
2022/02/11 00:08:47;;;;;;;34.40;18.93;;;;;;;6.84;75.15;98944.70;2289072;77;21410;-84
2022/02/11 00:11:47;;;;;;;30.00;18.87;;;;;;;6.81;75.73;98944.20;2292427;78;20919;-83
2022/02/11 00:15:02;;;;;;;25.80;15.70;;;;;;;6.82;75.78;98950.27;2292742;78;21410;-85
2022/02/11 00:17:50;;;;;;;31.37;18.00;;;;;;;6.80;75.92;98950.23;2290412;77;20992;-83
2022/02/11 00:20:52;;;;;;;30.03;17.83;;;;;;;6.78;75.84;98949.30;2292130;78;20975;-82
2022/02/11 00:23:53;;;;;;;31.23;18.63;;;;;;;6.96;84.52;98946.38;2292076;78;21343;-84
2022/02/11 00:27:23;;;;;;;27.60;16.80;;;;;;;9.13;81.67;98943.32;2292569;78;20913;-84
2022/02/11 00:36:21;;;;;;;28.30;17.47;;;;;;;8.33;70.87;98956.77;2292563;77;20965;-84
2022/02/11 00:46:09;;;;;;;31.37;17.70;;;;;;;7.15;75.90;98965.93;2291550;77;20960;-84
2022/02/11 01:05:11;;;;;;;21.73;16.90;;;;;;;6.58;80.15;98978.98;2292426;78;21048;-84
2022/02/11 01:08:12;;;;;;;21.30;15.23;;;;;;;6.43;81.68;98990.19;2292764;78;20971;-83
2022/02/11 01:11:19;;;;;;;13.80;9.13;;;;;;;6.30;82.51;98990.23;2293008;78;20912;-83
2022/02/11 01:14:15;;;;;;;15.97;9.30;;;;;;;6.13;85.30;98992.71;2291390;78;21048;-84
2022/02/11 01:20:48;;;;;;;7.30;4.93;;;;;;;10.59;84.67;98969.28;2268927;78;20998;-82
2022/02/11 01:27:02;;;;;;;7.13;3.50;;;;;;;12.98;68.05;98962.79;2268813;78;20948;-84
2022/02/11 01:40:13;;;;;;;5.28;4.67;;;;;;;16.69;62.05;98958.75;2268700;78;21044;-82
2022/02/11 01:52:57;;;;;;;7.08;5.20;;;;;;;19.26;52.74;98967.09;2291979;78;20995;-82
2022/02/11 02:08:40;;;;;;;4.08;3.67;;;;;;;14.71;51.36;98978.34;2261817;78;20965;-83
2022/02/11 02:09:12;;;;;;;;;;;;;;;13.40;55.63;98983.09;2281270;78;21001;-83
2022/02/11 02:19:01;;;;;;;;;;;;;;;11.52;59.90;98981.30;2264296;78;20954;-84
2022/02/11 02:24:55;;;;;;;3.62;3.33;;;;;;;9.64;61.25;98983.81;2262598;78;20990;-84
2022/02/11 02:28:09;;;;;;;3.80;3.43;;;;;;;8.89;64.87;98982.77;2281315;78;20970;-83
2022/02/11 02:57:28;;;;;;;3.75;3.25;;;;;;;17.40;55.15;98974.17;2282189;77;20950;-82
2022/02/11 03:50:33;;;;;;;11.40;8.47;;;;;;;6.29;87.90;99007.50;2226992;79;21367;-83
2022/02/11 04:08:21;;;;;;;9.70;7.77;;;;;;;9.69;63.12;99005.63;2229506;79;20969;-82
2022/02/11 04:26:07;;;;;;;22.67;11.50;;;;;;;11.60;72.17;98992.29;2263492;78;20990;-84
2022/02/11 04:55:07;;;;;;;8.43;6.30;;;;;;;6.42;69.99;98997.50;2279295;77;21025;-77
2022/02/11 05:01:22;;;;;;;12.50;8.67;;;;;;;6.12;70.87;98997.44;2279104;77;21013;-77
2022/02/11 05:04:23;;;;;;;10.30;6.70;;;;;;;6.03;71.40;98997.98;2270368;77;21007;-77
2022/02/11 05:07:23;;;;;;;8.37;6.63;;;;;;;5.95;71.89;99002.04;2291010;78;20943;-76
2022/02/11 05:10:24;;;;;;;11.43;9.33;;;;;;;5.88;72.35;99005.23;2288408;78;21050;-77
2022/02/11 05:13:25;;;;;;;13.23;9.67;;;;;;;5.81;72.67;99001.56;2289241;77;20980;-77
2022/02/11 05:16:25;;;;;;;9.53;6.07;;;;;;;5.79;73.00;99003.63;2289041;77;20940;-77
2022/02/11 05:19:26;;;;;;;8.37;5.60;;;;;;;5.75;73.30;99001.36;2289290;77;20950;-76
2022/02/11 05:22:26;;;;;;;8.00;5.47;;;;;;;5.71;73.52;99005.97;2287504;78;21355;-76
2022/02/11 05:25:27;;;;;;;10.77;6.53;;;;;;;5.67;73.78;99004.98;2289617;77;20991;-77
2022/02/11 05:28:27;;;;;;;10.40;6.43;;;;;;;5.65;74.02;99002.76;2289584;77;20924;-77
2022/02/11 05:31:28;;;;;;;9.40;7.33;;;;;;;5.62;74.20;99007.84;2288317;78;20979;-77
2022/02/11 05:34:28;;;;;;;12.13;7.67;;;;;;;5.60;74.55;99006.91;2289021;78;20975;-77
2022/02/11 05:37:29;;;;;;;8.53;5.87;;;;;;;5.59;74.75;99005.14;2287921;77;20935;-76
2022/02/11 05:40:30;;;;;;;8.20;6.30;;;;;;;5.55;74.90;99011.45;2288220;77;20987;-77
2022/02/11 05:43:30;;;;;;;6.90;6.17;;;;;;;5.53;75.12;99012.70;2289160;77;20986;-76
2022/02/11 05:46:31;;;;;;;8.43;6.57;;;;;;;5.50;75.26;99011.30;2288865;78;21242;-77
2022/02/11 05:49:31;;;;;;;7.47;6.77;;;;;;;5.48;75.51;99011.66;2289408;77;21837;-78
2022/02/11 05:52:32;;;;;;;107.20;73.60;;;;;;;5.50;75.84;99016.48;2289893;78;21303;-80
2022/02/11 05:55:32;;;;;;;14.90;11.80;;;;;;;5.54;75.92;99018.34;2290046;77;20979;-81
2022/02/11 05:58:33;;;;;;;16.30;11.37;;;;;;;5.59;75.81;99021.97;2289592;78;20959;-80
2022/02/11 06:01:34;;;;;;;11.97;8.07;;;;;;;5.64;75.90;99018.24;2290878;78;20952;-80
2022/02/11 06:04:34;;;;;;;11.23;7.50;;;;;;;5.67;76.05;99011.45;2261609;78;20976;-80
2022/02/11 06:07:35;;;;;;;10.80;7.37;;;;;;;5.66;76.01;99016.17;2247549;79;20908;-81
2022/02/11 06:10:35;;;;;;;10.77;6.83;;;;;;;5.68;75.84;99014.93;2246772;78;21007;-81
2022/02/11 06:13:35;;;;;;;8.23;6.30;;;;;;;5.68;76.03;99019.70;2246611;78;20982;-81
2022/02/11 06:16:36;;;;;;;8.13;6.20;;;;;;;5.69;76.13;99012.39;2246407;78;20948;-80
2022/02/11 06:19:36;;;;;;;8.40;6.43;;;;;;;5.71;76.05;99013.33;2246232;78;20940;-80
2022/02/11 06:22:37;;;;;;;38.43;23.27;;;;;;;5.72;75.96;99024.15;2246809;79;20939;-80
2022/02/11 06:25:38;;;;;;;14.03;10.97;;;;;;;5.70;75.98;99014.16;2247087;78;21399;-81
2022/02/11 06:28:38;;;;;;;13.17;9.40;;;;;;;5.70;75.85;99016.74;2246201;78;21027;-81
2022/02/11 06:31:39;;;;;;;11.00;8.93;;;;;;;5.65;75.79;99013.12;2246540;79;20940;-82
2022/02/11 06:34:39;;;;;;;11.00;9.60;;;;;;;5.64;75.79;99009.18;2246580;79;20968;-80
2022/02/11 06:37:42;;;;;;;10.77;9.20;;;;;;;5.63;76.11;99008.72;2246851;78;21404;-81
2022/02/11 06:40:42;;;;;;;10.50;9.20;;;;;;;5.63;76.25;99005.71;2245744;76;21122;-81
2022/02/11 06:43:43;;;;;;;17.00;10.30;;;;;;;5.63;76.04;99001.83;2244720;79;21434;-80
2022/02/11 06:46:44;;;;;;;11.10;8.90;;;;;;;5.58;75.95;99003.37;2245248;78;20917;-80
2022/02/11 06:49:44;;;;;;;12.80;9.67;;;;;;;6.08;79.76;99001.64;2246188;79;20960;-81
2022/02/11 06:52:45;;;;;;;15.87;10.93;;;;;;;6.77;79.64;99002.03;2246084;78;21057;-81
2022/02/11 06:55:46;;;;;;;10.40;9.30;;;;;;;7.35;79.02;99000.68;2247681;78;21363;-80
2022/02/11 06:58:49;;;;;;;12.73;9.03;;;;;;;7.28;74.36;99000.05;2247738;78;21370;-79
2022/02/11 07:01:49;;;;;;;12.43;9.63;;;;;;;6.96;73.66;99008.66;2247555;79;21026;-79
2022/02/11 07:04:49;;;;;;;14.30;12.47;;;;;;;6.70;73.63;99002.69;2266791;77;21013;-79
2022/02/11 07:07:50;;;;;;;44.90;31.93;;;;;;;6.61;75.69;99005.89;2277981;78;20937;-79
2022/02/11 07:10:50;;;;;;;15.07;12.23;;;;;;;6.61;74.05;99008.89;2277311;78;21064;-80
2022/02/11 07:13:53;;;;;;;17.87;12.63;;;;;;;6.47;74.01;99012.78;2277395;78;21020;-80
2022/02/11 07:16:54;;;;;;;19.50;11.67;;;;;;;6.37;74.35;99013.80;2279073;78;21008;-81
2022/02/11 07:19:55;;;;;;;13.40;10.00;;;;;;;6.34;74.51;99000.74;2280091;78;20958;-80
2022/02/11 07:22:55;;;;;;;17.07;10.27;;;;;;;6.33;74.47;98999.40;2280331;78;20915;-81
2022/02/11 07:25:56;;;;;;;19.10;13.40;;;;;;;6.36;74.83;98995.19;2279321;78;20953;-80
2022/02/11 07:28:57;;;;;;;22.10;13.27;;;;;;;6.36;74.76;98982.23;2279429;78;21362;-79
2022/02/11 07:31:57;;;;;;;14.73;10.73;;;;;;;6.39;74.66;98977.13;2278778;78;20941;-79
2022/02/11 07:35:00;;;;;;;15.77;11.27;;;;;;;6.43;74.58;98973.34;2278249;78;21040;-81
2022/02/11 07:38:00;;;;;;;16.03;10.80;;;;;;;6.44;74.49;98966.02;2278728;78;21057;-81
2022/02/11 07:41:01;;;;;;;18.93;11.97;;;;;;;6.53;74.44;98963.28;2278347;78;21009;-78
2022/02/11 07:44:02;;;;;;;23.80;11.73;;;;;;;6.61;74.50;98964.39;2279472;78;21005;-81
2022/02/11 07:47:02;;;;;;;18.07;11.50;;;;;;;6.63;74.26;98969.20;2280657;78;20958;-80
2022/02/11 07:50:03;;;;;;;18.43;11.80;;;;;;;6.65;74.23;98970.55;2279712;78;20992;-80
2022/02/11 07:53:04;;;;;;;17.53;11.47;;;;;;;6.65;74.12;98964.06;2279099;78;20981;-79
2022/02/11 07:56:04;;;;;;;15.50;10.47;;;;;;;6.64;74.11;98955.39;2278075;78;20946;-80
2022/02/11 07:59:05;;;;;;;12.03;8.60;;;;;;;6.62;74.21;98946.69;2277869;78;20956;-79
2022/02/11 08:02:05;;;;;;;11.30;7.20;;;;;;;6.62;74.17;98949.70;2278105;77;20930;-79
2022/02/11 08:05:06;;;;;;;10.67;6.70;;;;;;;6.61;74.22;98954.02;2279357;78;21056;-79
2022/02/11 08:08:06;;;;;;;11.53;6.47;;;;;;;6.61;74.18;98960.91;2278875;77;21368;-79
2022/02/11 08:11:07;;;;;;;16.73;7.93;;;;;;;6.65;74.28;98958.88;2278153;77;21384;-80
2022/02/11 08:14:07;;;;;;;12.63;7.10;;;;;;;6.74;74.09;98959.55;2279008;77;21372;-80
2022/02/11 08:17:08;;;;;;;12.37;6.97;;;;;;;6.75;73.85;98957.42;2278818;78;20961;-81
2022/02/11 08:20:09;;;;;;;16.97;9.40;;;;;;;6.72;73.59;98955.62;2278453;77;21016;-80
2022/02/11 08:23:10;;;;;;;19.93;9.33;;;;;;;6.70;74.07;98967.66;2278220;78;20918;-81
2022/02/11 08:26:10;;;;;;;20.30;9.77;;;;;;;6.70;74.07;98967.66;2278722;77;21353;-81
2022/02/11 08:29:13;;;;;;;11.17;8.33;;;;;;;6.75;73.85;98960.89;2278436;77;20953;-82
2022/02/11 08:32:13;;;;;;;11.33;8.10;;;;;;;6.78;73.69;98960.98;2278759;78;21025;-82
2022/02/11 08:35:14;;;;;;;48.87;30.63;;;;;;;6.82;73.59;98963.25;2278492;78;21001;-81
2022/02/11 08:38:14;;;;;;;18.37;10.33;;;;;;;6.97;73.83;98961.11;2279650;78;20914;-81
2022/02/11 08:41:15;;;;;;;11.57;7.63;;;;;;;7.03;73.44;98953.08;2278635;78;21029;-82
2022/02/11 08:44:15;;;;;;;10.70;7.03;;;;;;;7.11;73.14;98947.22;2279112;77;20997;-81
2022/02/11 08:47:16;;;;;;;7.73;6.43;;;;;;;7.19;73.18;98953.49;2279543;77;21321;-82
2022/02/11 08:50:18;;;;;;;7.43;6.23;;;;;;;7.26;72.64;98959.31;2279889;77;21416;-81
2022/02/11 08:53:22;;;;;;;10.13;6.33;;;;;;;7.28;72.53;98956.33;2279565;78;21119;-81
2022/02/11 08:56:21;;;;;;;8.27;6.50;;;;;;;7.32;72.57;98956.45;2278404;77;21057;-80
2022/02/11 08:59:22;;;;;;;15.23;7.77;;;;;;;7.39;72.62;98957.91;2279709;77;20961;-80
2022/02/11 09:02:22;;;;;;;18.17;14.37;;;;;;;7.43;72.77;98957.16;2279087;78;21229;-81
2022/02/11 09:08:26;;;;;;;9.20;6.67;;;;;;;7.49;72.09;98967.28;2265186;78;21054;-81
2022/02/11 09:11:26;;;;;;;10.53;6.07;;;;;;;7.53;72.28;98969.12;2289559;78;21007;-81
2022/02/11 09:14:27;;;;;;;6.23;5.63;;;;;;;7.51;72.23;98968.62;2288907;78;21021;-81
2022/02/11 09:17:28;;;;;;;11.07;7.10;;;;;;;7.51;72.91;98974.70;2289936;78;20948;-81
2022/02/11 09:20:28;;;;;;;12.40;6.80;;;;;;;7.53;72.66;98962.63;2290273;78;20935;-81
2022/02/11 09:23:29;;;;;;;8.30;6.33;;;;;;;7.55;72.79;98964.84;2289578;78;20972;-81
2022/02/11 09:26:29;;;;;;;8.63;5.50;;;;;;;7.53;73.18;98960.45;2289072;78;20966;-81
2022/02/11 09:29:30;;;;;;;7.03;4.83;;;;;;;7.47;71.44;98954.67;2288346;78;21367;-82
2022/02/11 09:32:34;;;;;;;9.07;4.57;;;;;;;7.41;71.96;98951.92;2288017;78;21339;-82
2022/02/11 09:35:32;;;;;;;9.17;6.47;;;;;;;7.27;72.12;98944.19;2288091;78;21071;-80
2022/02/11 09:38:36;;;;;;;7.33;3.60;;;;;;;7.27;72.12;98944.19;2265017;78;21245;-80
2022/02/11 09:41:36;;;;;;;14.10;5.93;;;;;;;7.24;72.05;98942.39;2288498;78;21106;-81
2022/02/11 09:44:37;;;;;;;11.30;6.17;;;;;;;7.13;71.97;98947.72;2289245;78;21322;-82
2022/02/11 09:47:37;;;;;;;6.40;4.77;;;;;;;7.11;72.66;98943.32;2288589;78;21366;-82
2022/02/11 09:53:40;;;;;;;9.90;5.20;;;;;;;6.94;74.13;98929.47;2264197;78;21270;-82
2022/02/11 09:56:41;;;;;;;9.60;5.90;;;;;;;6.94;74.13;98929.47;2288716;78;20990;-83
2022/02/11 09:59:41;;;;;;;7.83;4.93;;;;;;;6.91;73.96;98928.05;2288846;78;20955;-81
2022/02/11 10:02:42;;;;;;;9.80;5.13;;;;;;;6.86;74.23;98929.64;2289068;78;21255;-82
2022/02/11 10:05:42;;;;;;;10.10;5.37;;;;;;;6.83;74.46;98930.86;2283046;78;20997;-82
2022/02/11 10:08:43;;;;;;;12.10;6.33;;;;;;;6.79;74.63;98932.02;2281195;77;20934;-82
2022/02/11 10:11:46;;;;;;;25.90;12.73;;;;;;;6.78;75.00;98929.84;2282771;77;21373;-82
2022/02/11 10:14:47;;;;;;;24.80;10.13;;;;;;;6.78;75.18;98927.25;2282399;78;21029;-81
2022/02/11 10:17:48;;;;;;;56.13;32.10;;;;;;;6.73;75.77;98930.14;2279979;78;21024;-80
2022/02/11 10:20:51;;;;;;;40.80;21.13;;;;;;;6.70;76.03;98922.27;2279709;78;20938;-81
2022/02/11 10:23:51;;;;;;;23.33;13.07;;;;;;;6.78;76.25;98906.91;2280764;78;20997;-81
2022/02/11 10:26:51;;;;;;;29.60;16.03;;;;;;;6.78;76.25;98906.91;2281001;78;20951;-81
2022/02/11 10:29:52;;;;;;;24.07;12.37;;;;;;;6.80;76.17;98911.31;2280696;78;21200;-81
2022/02/11 10:32:54;;;;;;;13.07;9.87;;;;;;;6.85;76.39;98908.42;2280423;78;20990;-82
2022/02/11 10:35:55;;;;;;;16.93;11.03;;;;;;;6.94;76.48;98899.62;2278969;78;20961;-81
2022/02/11 10:38:55;;;;;;;17.90;9.80;;;;;;;6.98;76.86;98888.48;2278925;78;20926;-80
2022/02/11 10:41:56;;;;;;;16.70;10.43;;;;;;;7.08;77.33;98880.95;2280269;78;21009;-81
2022/02/11 10:44:57;;;;;;;16.97;11.83;;;;;;;7.12;77.12;98878.89;2279121;78;21478;-83
2022/02/11 10:47:57;;;;;;;19.13;12.20;;;;;;;7.05;77.44;98870.48;2279447;78;21035;-81
2022/02/11 10:50:58;;;;;;;21.93;13.70;;;;;;;7.00;77.65;98875.13;2280210;78;20934;-80
2022/02/11 10:53:58;;;;;;;20.53;13.80;;;;;;;6.96;77.82;98873.30;2279317;78;21032;-82
2022/02/11 10:56:59;;;;;;;26.80;19.10;;;;;;;7.01;78.13;98878.61;2279025;78;20957;-82
2022/02/11 11:00:04;;;;;;;26.83;17.10;;;;;;;6.99;77.96;98873.37;2279165;78;20934;-81
2022/02/11 11:03:10;;;;;;;;;;;;;;;6.89;77.53;98877.83;2281847;78;20990;-81
2022/02/11 11:06:08;;;;;;;25.37;18.90;;;;;;;6.98;78.28;98858.64;2254149;77;20105;-79
2022/02/11 11:09:09;;;;;;;27.87;16.70;;;;;;;6.98;78.28;98858.64;2247454;78;20936;-80
2022/02/11 11:12:10;;;;;;;25.33;17.70;;;;;;;6.97;78.29;98855.59;2247309;79;21097;-82
2022/02/11 11:15:11;;;;;;;24.90;16.70;;;;;;;7.00;78.39;98847.88;2245808;78;21255;-79
2022/02/11 11:18:13;;;;;;;29.53;18.10;;;;;;;7.07;78.30;98844.15;2245905;78;21046;-79
2022/02/11 11:21:13;;;;;;;32.53;19.57;;;;;;;7.07;78.30;98844.15;2247259;78;20967;-80
2022/02/11 11:24:14;;;;;;;32.53;21.83;;;;;;;7.19;78.55;98849.65;2246550;79;20940;-82
2022/02/11 11:27:14;;;;;;;26.97;20.33;;;;;;;7.22;78.60;98844.11;2247874;78;20972;-81
2022/02/11 11:30:15;;;;;;;29.27;20.83;;;;;;;7.20;78.28;98829.34;2247906;79;20940;-79
2022/02/11 11:33:16;;;;;;;28.53;20.20;;;;;;;7.19;78.37;98824.98;2247276;79;20995;-80
2022/02/11 11:36:18;;;;;;;26.60;18.93;;;;;;;7.19;78.43;98821.09;2247005;78;21050;-82
2022/02/11 11:39:19;;;;;;;28.40;21.10;;;;;;;7.20;78.53;98817.66;2247241;78;21359;-81
2022/02/11 11:42:19;;;;;;;23.93;18.97;;;;;;;7.13;78.51;98811.86;2246630;79;21027;-81
2022/02/11 11:45:19;;;;;;;32.93;20.03;;;;;;;7.10;78.55;98808.77;2247092;78;21006;-80
2022/02/11 11:48:20;;;;;;;28.30;20.37;;;;;;;7.12;78.87;98808.38;2246317;79;20973;-81
2022/02/11 11:51:20;;;;;;;30.53;21.50;;;;;;;7.20;78.79;98803.38;2246776;79;20952;-80
2022/02/11 11:54:21;;;;;;;32.60;22.90;;;;;;;7.24;78.88;98807.80;2245134;78;21006;-81
2022/02/11 11:57:22;;;;;;;31.90;23.10;;;;;;;7.28;78.73;98809.22;2246042;78;20986;-81
2022/02/11 12:00:22;;;;;;;35.97;23.33;;;;;;;7.28;78.83;98805.73;2245881;79;20960;-80
2022/02/11 12:03:27;;;;;;;37.50;24.80;;;;;;;7.26;78.98;98810.02;2246919;78;20919;-81
2022/02/11 12:06:27;;;;;;;34.88;24.72;;;;;;;7.19;79.02;98801.62;2271760;77;21103;-82
2022/02/11 12:09:27;;;;;;;31.10;24.00;;;;;;;7.15;79.10;98803.69;2278732;78;20972;-83
2022/02/11 12:12:28;;;;;;;35.13;24.23;;;;;;;7.15;79.15;98802.39;2278030;78;21560;-81
2022/02/11 12:15:28;;;;;;;38.83;25.00;;;;;;;7.17;79.25;98805.48;2279674;78;21417;-82
2022/02/11 12:18:29;;;;;;;33.93;25.67;;;;;;;7.17;79.44;98807.20;2280381;78;20927;-82
2022/02/11 12:21:29;;;;;;;40.40;26.83;;;;;;;7.15;79.75;98804.56;2280219;78;21009;-81
2022/02/11 12:27:49;;;;;;;42.37;27.47;;;;;;;7.06;80.05;98808.65;2279682;78;21052;-80
2022/02/11 12:30:50;;;;;;;43.20;28.73;;;;;;;7.02;80.33;98798.19;2278976;78;20978;-80
2022/02/11 12:33:51;;;;;;;44.60;29.40;;;;;;;7.01;80.73;98802.92;2279229;78;21001;-80
2022/02/11 12:36:51;;;;;;;42.57;28.60;;;;;;;6.93;80.61;98797.92;2278624;78;21178;-81
2022/02/11 12:39:52;;;;;;;41.33;27.53;;;;;;;6.89;80.18;98805.17;2278760;78;20981;-81
2022/02/11 12:42:52;;;;;;;36.03;23.37;;;;;;;6.83;80.38;98810.20;2279689;78;21043;-81
2022/02/11 12:45:53;;;;;;;32.83;22.47;;;;;;;6.72;79.81;98806.45;2278737;78;20965;-79
2022/02/11 12:48:54;;;;;;;37.83;25.60;;;;;;;6.64;80.66;98802.78;2278774;78;20981;-81
2022/02/11 12:51:54;;;;;;;34.03;22.47;;;;;;;6.59;82.05;98800.48;2279536;78;20953;-81
2022/02/11 12:54:55;;;;;;;46.97;29.47;;;;;;;6.56;81.40;98808.19;2279987;78;21583;-81
2022/02/11 12:57:57;;;;;;;41.53;28.77;;;;;;;6.47;81.43;98806.64;2280576;78;21410;-81
2022/02/11 13:00:57;;;;;;;51.67;35.90;;;;;;;6.43;82.03;98809.56;2281143;78;21000;-81
2022/02/11 13:03:58;;;;;;;25.33;17.30;;;;;;;6.31;82.30;98823.48;2280225;78;21397;-80
2022/02/11 13:06:58;;;;;;;27.47;19.23;;;;;;;5.91;81.98;98870.64;2288631;77;20999;-82
2022/02/11 13:09:59;;;;;;;20.57;13.33;;;;;;;5.27;82.61;98897.04;2289551;78;21035;-81
2022/02/11 13:12:59;;;;;;;29.47;19.07;;;;;;;4.73;83.42;98872.30;2289880;78;21050;-82
2022/02/11 13:16:01;;;;;;;34.47;21.30;;;;;;;4.38;84.35;98878.38;2290320;78;20951;-82
2022/02/11 13:19:02;;;;;;;31.67;21.83;;;;;;;4.20;84.72;98888.01;2289424;78;20959;-82
2022/02/11 13:22:02;;;;;;;33.23;20.67;;;;;;;4.10;85.57;98880.33;2288885;78;21383;-82
2022/02/11 13:25:03;;;;;;;22.67;12.53;;;;;;;4.06;85.90;98885.31;2288647;78;21425;-82
2022/02/11 13:28:03;;;;;;;16.50;9.00;;;;;;;4.01;85.89;98899.34;2288989;78;21403;-83
2022/02/11 13:31:04;;;;;;;9.27;6.77;;;;;;;3.90;86.43;98925.58;2289476;78;20959;-83
2022/02/11 13:34:04;;;;;;;11.63;8.40;;;;;;;3.72;86.22;98938.64;2290727;78;21031;-83
2022/02/11 13:37:05;;;;;;;15.30;10.93;;;;;;;3.56;86.25;98939.73;2289512;78;20991;-83
2022/02/11 13:40:05;;;;;;;13.87;9.27;;;;;;;3.39;86.74;98948.44;2289252;78;21042;-82
2022/02/11 13:43:05;;;;;;;9.67;7.30;;;;;;;3.27;87.06;98972.44;2289146;78;21061;-83
2022/02/11 13:46:06;;;;;;;13.53;7.63;;;;;;;3.10;87.44;98975.59;2288431;78;20951;-82
2022/02/11 13:49:07;;;;;;;32.43;26.20;;;;;;;3.00;87.69;98983.34;2287923;78;20967;-83
2022/02/11 13:58:34;;;;;;;9.53;5.50;;;;;;;2.65;87.69;99024.71;2266561;78;21000;-84
2022/02/11 14:01:35;;;;;;;8.37;5.50;;;;;;;2.46;87.91;99018.68;2290017;78;20967;-83
2022/02/11 14:04:39;;;;;;;8.93;6.60;;;;;;;2.37;89.27;99032.42;2266797;78;20991;-83
2022/02/11 14:07:39;;;;;;;8.60;6.30;;;;;;;2.35;89.19;99046.05;2289087;78;21278;-84
2022/02/11 14:10:40;;;;;;;10.87;7.80;;;;;;;2.30;89.55;99051.38;2290955;78;20920;-83
2022/02/11 14:13:42;;;;;;;9.00;7.83;;;;;;;2.27;89.65;99065.41;2267606;78;20961;-83
2022/02/11 14:16:45;;;;;;;5.13;4.23;;;;;;;2.19;89.35;99080.09;2266050;78;21024;-84
2022/02/11 14:19:46;;;;;;;12.60;5.80;;;;;;;2.07;89.16;99085.05;2289844;78;21082;-84
2022/02/11 14:22:46;;;;;;;8.57;5.73;;;;;;;1.96;89.34;99097.80;2289342;78;20959;-84
2022/02/11 14:25:47;;;;;;;7.80;5.80;;;;;;;1.85;89.92;99113.59;2287700;78;20968;-84
2022/02/11 14:28:52;;;;;;;9.70;7.40;;;;;;;1.77;89.38;99115.30;2265522;78;21019;-84
2022/02/11 14:31:52;;;;;;;9.33;6.60;;;;;;;1.68;90.32;99125.09;2289057;78;21030;-84
2022/02/11 14:34:53;;;;;;;9.83;6.23;;;;;;;1.64;90.50;99144.64;2288548;78;20967;-81
2022/02/11 14:44:32;;;;;;;10.77;6.67;;;;;;;1.62;90.58;99174.55;2288798;77;21039;-85
2022/02/11 14:47:35;;;;;;;10.00;6.80;;;;;;;1.54;91.07;99192.57;2267910;78;21043;-84
2022/02/11 14:53:47;;;;;;;12.63;8.27;;;;;;;1.45;91.06;99219.98;2258409;78;21058;-83
2022/02/11 14:56:48;;;;;;;12.30;7.17;;;;;;;1.40;91.47;99226.97;2290238;78;21068;-84
2022/02/11 14:59:49;;;;;;;11.70;5.57;;;;;;;1.38;91.54;99241.44;2289241;78;20998;-84
2022/02/11 15:02:51;;;;;;;8.43;6.67;;;;;;;1.32;91.36;99235.96;2289738;77;21940;-84
2022/02/11 15:05:52;;;;;;;10.27;7.07;;;;;;;1.32;91.72;99238.53;2248619;78;21006;-84
2022/02/11 15:08:53;;;;;;;9.70;5.90;;;;;;;1.33;91.40;99250.19;2242593;79;20967;-84
2022/02/11 15:11:55;;;;;;;11.63;6.40;;;;;;;1.33;91.29;99253.16;2218993;79;21026;-83
2022/02/11 15:14:57;;;;;;;8.83;5.67;;;;;;;1.31;91.21;99271.48;2240187;79;21061;-81
2022/02/11 15:17:58;;;;;;;6.13;4.23;;;;;;;1.27;91.15;99280.31;2241033;78;20978;-82
2022/02/11 15:21:05;;;;;;;8.13;5.47;;;;;;;1.24;91.41;99285.69;2241083;78;21013;-79
2022/02/11 15:24:05;;;;;;;6.67;5.10;;;;;;;1.23;91.45;99295.09;2239059;79;21054;-83
2022/02/11 15:27:05;;;;;;;10.17;5.97;;;;;;;1.26;91.57;99297.83;2240822;78;21240;-82
2022/02/11 15:30:08;;;;;;;10.40;6.17;;;;;;;1.28;91.29;99303.06;2242051;78;21385;-83
2022/02/11 15:33:13;;;;;;;9.17;5.97;;;;;;;1.26;91.50;99312.38;2243049;79;21066;-85
2022/02/11 15:39:16;;;;;;;18.73;9.97;;;;;;;1.21;91.50;99317.27;2221546;79;20991;-83
2022/02/11 15:42:19;;;;;;;15.90;11.33;;;;;;;1.22;91.69;99329.33;2241873;79;21025;-84
2022/02/11 15:45:21;;;;;;;18.37;12.93;;;;;;;1.21;92.09;99330.13;2241812;79;21284;-83
2022/02/11 15:51:27;;;;;;;20.33;13.40;;;;;;;1.24;92.09;99352.55;2221520;79;21022;-82
2022/02/11 15:54:28;;;;;;;25.80;13.78;;;;;;;1.25;92.15;99355.22;2243337;78;21018;-84
2022/02/11 15:57:29;;;;;;;16.47;10.57;;;;;;;1.26;92.12;99374.10;2243699;79;21307;-83
2022/02/11 16:00:29;;;;;;;16.83;10.00;;;;;;;1.27;91.98;99376.77;2242900;78;20931;-81
2022/02/11 16:03:30;;;;;;;12.70;9.53;;;;;;;1.43;92.28;99384.05;2241569;79;20970;-83
2022/02/11 16:06:30;;;;;;;13.90;9.47;;;;;;;1.41;91.36;99384.37;2260503;78;20969;-83
2022/02/11 16:09:31;;;;;;;18.37;10.47;;;;;;;1.35;91.27;99392.63;2283214;77;20965;-83
2022/02/11 16:12:33;;;;;;;16.33;10.40;;;;;;;1.34;91.26;99399.86;2261012;78;21117;-84
2022/02/11 16:15:36;;;;;;;12.73;8.50;;;;;;;1.32;91.42;99396.31;2261165;78;21395;-84
2022/02/11 16:18:36;;;;;;;14.73;9.83;;;;;;;1.30;91.25;99406.02;2283405;77;20895;-83
2022/02/11 16:21:37;;;;;;;17.07;9.07;;;;;;;1.28;91.50;99410.68;2282602;77;21005;-82
2022/02/11 16:24:40;;;;;;;15.70;10.00;;;;;;;1.28;91.31;99413.25;2282336;78;21013;-83
2022/02/11 16:27:40;;;;;;;19.70;11.27;;;;;;;1.27;91.42;99417.91;2281818;78;20938;-83
2022/02/11 16:33:43;;;;;;;15.93;10.40;;;;;;;1.30;91.33;99423.63;2258502;78;21417;-85
2022/02/11 16:39:46;;;;;;;26.10;12.87;;;;;;;1.31;91.15;99427.09;2261301;78;21077;-84
2022/02/11 16:42:47;;;;;;;48.37;18.67;;;;;;;1.34;90.94;99425.98;2282264;78;21010;-83
2022/02/11 16:45:48;;;;;;;25.43;13.80;;;;;;;1.35;91.06;99435.06;2282559;78;21417;-83
2022/02/11 16:48:49;;;;;;;18.00;10.50;;;;;;;1.35;90.74;99435.47;2282677;78;20962;-84
2022/02/11 16:51:49;;;;;;;14.20;10.33;;;;;;;1.39;90.85;99436.13;2281127;78;21013;-84
2022/02/11 16:54:50;;;;;;;19.60;10.83;;;;;;;1.38;90.99;99447.22;2280935;78;21004;-82
2022/02/11 16:57:50;;;;;;;19.93;11.47;;;;;;;1.37;90.79;99448.91;2281425;78;20953;-83
2022/02/11 17:00:53;;;;;;;21.73;11.50;;;;;;;1.41;90.70;99450.85;2259834;78;21078;-83
2022/02/11 17:03:54;;;;;;;29.13;15.50;;;;;;;1.46;90.70;99456.26;2280578;78;20981;-83
2022/02/11 17:10:03;;;;;;;33.40;15.78;;;;;;;1.53;90.49;99472.53;2203437;79;20967;-84
2022/02/11 17:19:08;;;;;;;30.53;16.67;;;;;;;1.58;90.24;99494.27;2228795;78;20952;-85
2022/02/11 17:22:09;;;;;;;31.60;17.20;;;;;;;1.61;90.23;99499.59;2250301;79;20984;-78
2022/02/11 17:25:10;;;;;;;29.40;16.40;;;;;;;1.63;89.92;99511.25;2248944;79;21395;-79
2022/02/11 17:28:12;;;;;;;26.80;15.80;;;;;;;1.62;90.19;99505.22;2247692;78;20981;-84
2022/02/11 17:31:15;;;;;;;20.95;12.75;;;;;;;1.62;90.01;99506.51;2224236;79;20975;-85
2022/02/11 17:34:15;;;;;;;30.73;15.97;;;;;;;1.60;90.09;99509.39;2249105;78;20960;-83
2022/02/11 17:43:25;;;;;;;27.98;15.63;;;;;;;1.65;90.31;99519.55;2225753;78;21287;-82
2022/02/11 17:46:30;;;;;;;26.33;15.03;;;;;;;1.68;89.98;99517.55;2225039;79;21014;-83
2022/02/11 17:49:32;;;;;;;33.00;16.23;;;;;;;1.70;89.93;99521.98;2225482;79;20996;-83
2022/02/11 17:52:33;;;;;;;28.43;15.77;;;;;;;1.70;89.56;99527.13;2247662;78;20983;-84
2022/02/11 17:55:33;;;;;;;26.73;12.17;;;;;;;1.73;89.69;99535.43;2247481;79;21054;-85
2022/02/11 17:58:34;;;;;;;19.37;12.57;;;;;;;1.71;89.40;99537.92;2247358;79;20936;-82
2022/02/11 18:01:35;;;;;;;20.87;13.37;;;;;;;1.69;89.57;99539.52;2249881;78;20989;-83
2022/02/11 18:04:35;;;;;;;21.90;12.37;;;;;;;1.70;89.50;99532.68;2250263;78;21101;-82
2022/02/11 18:07:39;;;;;;;36.03;15.60;;;;;;;1.68;89.51;99540.72;2275937;77;20984;-81
2022/02/11 18:10:39;;;;;;;16.17;10.00;;;;;;;1.64;89.27;99554.20;2291267;77;21010;-82
2022/02/11 18:13:42;;;;;;;17.37;10.37;;;;;;;1.59;88.91;99562.55;2291744;78;20996;-81
2022/02/11 18:16:46;;;;;;;23.67;12.20;;;;;;;1.60;88.94;99557.00;2291693;78;20923;-82
2022/02/11 18:19:46;;;;;;;21.23;12.20;;;;;;;1.60;89.10;99560.86;2292223;78;20957;-84
2022/02/11 18:22:47;;;;;;;14.53;9.67;;;;;;;1.61;88.90;99569.06;2291548;78;20925;-82
2022/02/11 18:25:48;;;;;;;20.40;9.70;;;;;;;1.56;88.53;99569.20;2291674;78;20980;-79
2022/02/11 18:28:52;;;;;;;14.07;9.50;;;;;;;1.51;88.32;99572.78;2291657;78;20972;-79
2022/02/11 18:31:51;;;;;;;16.80;9.70;;;;;;;1.48;88.03;99573.01;2291911;77;20992;-79
2022/02/11 18:34:51;;;;;;;16.50;12.77;;;;;;;1.48;88.26;99575.58;2290618;78;21026;-79